createdAt,value
2018-08-22T00:02:23.433Z,19.30
2018-08-22T00:04:52.505Z,19.28
2018-08-22T00:07:21.473Z,19.28
2018-08-22T00:09:50.441Z,19.25
2018-08-22T00:12:19.396Z,19.25
2018-08-22T00:14:48.348Z,19.20
2018-08-22T00:17:17.302Z,19.14
2018-08-22T00:19:46.255Z,19.07
2018-08-22T00:22:15.261Z,19.01
2018-08-22T00:24:44.557Z,18.98
2018-08-22T00:27:13.512Z,18.95
2018-08-22T00:29:42.531Z,18.95
2018-08-22T00:32:11.489Z,18.95
2018-08-22T00:34:40.447Z,18.93
2018-08-22T00:37:09.391Z,18.92
2018-08-22T00:39:38.416Z,18.96
2018-08-22T00:42:07.356Z,19.01
2018-08-22T00:44:36.303Z,19.06
2018-08-22T00:47:05.260Z,19.14
2018-08-22T00:49:34.209Z,19.21
2018-08-22T00:52:03.182Z,19.24
2018-08-22T00:54:32.129Z,19.28
2018-08-22T00:57:01.181Z,19.29
2018-08-22T00:59:30.193Z,19.30
2018-08-22T01:01:59.265Z,19.30
2018-08-22T01:04:28.358Z,19.30
2018-08-22T01:06:57.310Z,19.30
2018-08-22T01:09:26.348Z,19.33
2018-08-22T01:11:55.288Z,19.37
2018-08-22T01:14:24.366Z,19.35
2018-08-22T01:16:53.384Z,19.34
2018-08-22T01:19:22.430Z,19.33
2018-08-22T01:21:51.527Z,19.33
2018-08-22T01:24:20.506Z,19.37
2018-08-22T01:26:49.556Z,19.39
2018-08-22T01:29:18.513Z,19.40
2018-08-22T01:31:47.650Z,19.38
2018-08-22T01:34:16.661Z,19.33
2018-08-22T01:36:45.734Z,19.31
2018-08-22T01:39:14.828Z,19.28
2018-08-22T01:41:43.782Z,19.23
2018-08-22T01:44:13.201Z,19.16
2018-08-22T01:46:42.197Z,19.10
2018-08-22T01:49:11.272Z,18.99
2018-08-22T01:51:40.247Z,18.87
2018-08-22T01:54:09.258Z,18.80
2018-08-22T01:56:38.268Z,18.67
2018-08-22T01:59:07.275Z,18.52
2018-08-22T02:01:36.289Z,18.41
2018-08-22T02:04:05.339Z,18.35
2018-08-22T02:06:34.400Z,18.28
2018-08-22T02:09:03.482Z,18.18
2018-08-22T02:11:32.507Z,18.11
2018-08-22T02:14:01.472Z,18.05
2018-08-22T02:16:30.431Z,18.05
2018-08-22T02:18:59.514Z,18.03
2018-08-22T02:21:28.589Z,18.03
2018-08-22T02:23:57.645Z,18.01
2018-08-22T02:26:26.630Z,18.01
2018-08-22T02:28:55.574Z,18.00
2018-08-22T02:31:24.604Z,18.00
2018-08-22T02:33:53.891Z,18.01
2018-08-22T02:36:22.973Z,18.02
2018-08-22T02:38:51.936Z,18.02
2018-08-22T02:41:20.948Z,18.03
2018-08-22T02:43:49.990Z,18.01
2018-08-22T02:46:18.940Z,18.04
2018-08-22T02:48:52.996Z,18.05
2018-08-22T02:51:22.024Z,18.06
2018-08-22T02:53:51.121Z,18.03
2018-08-22T02:56:20.148Z,18.01
2018-08-22T02:58:49.187Z,18.01
2018-08-22T03:01:18.276Z,17.99
2018-08-22T03:03:47.325Z,17.99
2018-08-22T03:06:16.300Z,17.97
2018-08-22T03:08:45.326Z,17.99
2018-08-22T03:11:14.424Z,17.97
2018-08-22T03:13:43.505Z,18.01
2018-08-22T03:16:12.561Z,17.99
2018-08-22T03:18:41.532Z,17.97
2018-08-22T03:21:10.488Z,17.95
2018-08-22T03:23:39.471Z,17.95
2018-08-22T03:26:08.541Z,17.93
2018-08-22T03:28:37.669Z,17.94
2018-08-22T03:31:06.750Z,17.91
2018-08-22T03:33:35.765Z,17.89
2018-08-22T03:36:04.807Z,17.90
2018-08-22T03:38:33.891Z,17.90
2018-08-22T03:41:02.876Z,17.89
2018-08-22T03:43:31.883Z,17.88
2018-08-22T03:46:00.964Z,17.89
2018-08-22T03:48:29.960Z,17.89
2018-08-22T03:50:58.944Z,17.93
2018-08-22T03:53:28.253Z,17.96
2018-08-22T03:55:57.296Z,17.99
2018-08-22T03:58:26.271Z,18.01
2018-08-22T04:00:55.245Z,18.06
2018-08-22T04:03:24.345Z,18.11
2018-08-22T04:05:53.313Z,18.18
2018-08-22T04:08:22.410Z,18.21
2018-08-22T04:10:51.476Z,18.27
2018-08-22T04:13:20.494Z,18.33
2018-08-22T04:15:49.577Z,18.40
2018-08-22T04:18:18.589Z,18.48
2018-08-22T04:20:47.688Z,18.61
2018-08-22T04:23:16.651Z,18.73
2018-08-22T04:25:45.639Z,19.08
2018-08-22T04:28:14.674Z,19.94
2018-08-22T04:30:43.673Z,20.92
2018-08-22T04:33:12.711Z,21.74
2018-08-22T04:35:41.718Z,22.62
2018-08-22T04:38:10.781Z,23.51
2018-08-22T04:40:39.744Z,24.43
2018-08-22T04:43:08.713Z,25.26
2018-08-22T04:45:37.749Z,26.04
2018-08-22T04:48:06.821Z,26.65
2018-08-22T04:50:35.850Z,27.15
2018-08-22T04:53:04.825Z,27.58
2018-08-22T04:55:33.953Z,28.15
2018-08-22T04:58:02.984Z,28.53
2018-08-22T05:00:31.992Z,29.31
2018-08-22T05:03:00.996Z,29.83
2018-08-22T05:05:30.005Z,30.12
2018-08-22T05:07:58.988Z,30.57
2018-08-22T05:10:27.951Z,31.02
2018-08-22T05:12:57.103Z,31.35
2018-08-22T05:15:26.061Z,31.41
2018-08-22T05:17:55.047Z,31.60
2018-08-22T05:20:24.079Z,31.65
2018-08-22T05:22:53.105Z,31.70
2018-08-22T05:25:22.157Z,31.71
2018-08-22T05:27:51.168Z,32.04
2018-08-22T05:30:20.322Z,32.12
2018-08-22T05:32:49.360Z,31.84
2018-08-22T05:35:18.341Z,31.88
2018-08-22T05:37:47.348Z,31.66
2018-08-22T05:40:16.364Z,31.76
2018-08-22T05:42:45.350Z,32.13
2018-08-22T05:45:14.362Z,31.86
2018-08-22T05:47:43.473Z,31.70
2018-08-22T05:50:12.494Z,31.92
2018-08-22T05:52:41.576Z,32.39
2018-08-22T05:55:10.614Z,32.70
2018-08-22T05:57:39.774Z,33.15
2018-08-22T06:00:08.790Z,33.43
2018-08-22T06:02:37.812Z,33.78
2018-08-22T06:05:06.893Z,33.46
2018-08-22T06:07:35.853Z,33.59
2018-08-22T06:10:05.032Z,33.66
2018-08-22T06:12:34.054Z,33.49
2018-08-22T06:15:03.129Z,32.13
2018-08-22T06:17:32.107Z,30.38
2018-08-22T06:20:01.211Z,29.38
2018-08-22T06:22:30.263Z,28.91
2018-08-22T06:24:59.212Z,28.61
2018-08-22T06:27:28.164Z,28.65
2018-08-22T06:29:57.201Z,28.55
2018-08-22T06:32:26.480Z,29.15
2018-08-22T06:34:55.459Z,30.41
2018-08-22T06:37:24.513Z,31.63
2018-08-22T06:39:53.553Z,31.86
2018-08-22T06:42:22.557Z,31.11
2018-08-22T06:44:51.796Z,30.09
2018-08-22T06:47:20.829Z,29.38
2018-08-22T06:49:49.795Z,28.94
2018-08-22T06:52:18.934Z,28.82
2018-08-22T06:54:47.955Z,28.49
2018-08-22T06:57:17.082Z,28.07
2018-08-22T06:59:46.028Z,28.30
2018-08-22T07:02:15.109Z,28.55
2018-08-22T07:04:44.157Z,29.04
2018-08-22T07:07:13.168Z,29.27
2018-08-22T07:09:42.184Z,29.48
2018-08-22T07:12:11.259Z,29.62
2018-08-22T07:14:40.345Z,29.78
2018-08-22T07:17:09.320Z,29.82
2018-08-22T07:19:38.328Z,30.20
2018-08-22T07:22:07.340Z,30.51
2018-08-22T07:24:36.292Z,30.15
2018-08-22T07:27:05.365Z,30.14
2018-08-22T07:29:34.329Z,30.12
2018-08-22T07:32:03.350Z,30.24
2018-08-22T07:34:32.328Z,30.46
2018-08-22T07:37:01.285Z,30.75
2018-08-22T07:39:30.365Z,30.56
2018-08-22T07:41:59.557Z,30.67
2018-08-22T07:44:28.584Z,30.74
2018-08-22T07:46:57.577Z,30.94
2018-08-22T07:49:26.539Z,30.75
2018-08-22T07:51:55.588Z,30.84
2018-08-22T07:54:29.953Z,30.96
2018-08-22T07:56:59.073Z,31.05
2018-08-22T07:59:28.089Z,31.13
2018-08-22T08:01:57.205Z,30.92
2018-08-22T08:04:26.119Z,30.79
2018-08-22T08:06:55.197Z,30.97
2018-08-22T08:09:24.130Z,30.80
2018-08-22T08:11:53.205Z,30.73
2018-08-22T08:14:22.188Z,31.00
2018-08-22T08:16:51.141Z,30.86
2018-08-22T08:19:20.159Z,30.96
2018-08-22T08:21:49.187Z,31.14
2018-08-22T08:24:18.176Z,31.08
2018-08-22T08:26:47.173Z,31.09
2018-08-22T08:29:16.204Z,31.14
2018-08-22T08:31:45.163Z,31.17
2018-08-22T08:34:14.288Z,31.24
2018-08-22T08:36:43.359Z,31.11
2018-08-22T08:39:12.808Z,31.08
2018-08-22T08:41:41.917Z,31.19
2018-08-22T08:44:10.824Z,31.17
2018-08-22T08:46:39.905Z,31.17
2018-08-22T08:49:08.934Z,31.31
2018-08-22T08:51:47.624Z,31.36
2018-08-22T08:54:16.585Z,31.38
2018-08-22T08:56:45.587Z,31.17
2018-08-22T08:59:14.603Z,31.21
2018-08-22T09:01:43.565Z,31.29
2018-08-22T09:04:12.533Z,31.39
2018-08-22T09:06:41.547Z,31.35
2018-08-22T09:09:11.084Z,31.45
2018-08-22T09:11:49.022Z,31.66
2018-08-22T09:14:18.065Z,31.77
2018-08-22T09:16:47.026Z,31.82
2018-08-22T09:19:16.030Z,32.00
2018-08-22T09:21:45.073Z,32.16
2018-08-22T09:24:14.098Z,32.39
2018-08-22T09:26:43.451Z,32.39
2018-08-22T09:29:12.743Z,32.25
2018-08-22T09:31:41.769Z,32.32
2018-08-22T09:34:10.797Z,32.41
2018-08-22T09:36:39.756Z,32.69
2018-08-22T09:39:11.999Z,33.10
2018-08-22T09:41:40.984Z,33.48
2018-08-22T09:44:10.060Z,33.63
2018-08-22T09:46:39.915Z,33.55
2018-08-22T09:49:09.371Z,33.62
2018-08-22T09:51:38.393Z,33.76
2018-08-22T09:54:07.352Z,33.80
2018-08-22T09:56:36.538Z,33.90
2018-08-22T09:59:05.562Z,33.91
2018-08-22T10:01:39.658Z,33.81
2018-08-22T10:04:08.660Z,33.92
2018-08-22T10:06:43.962Z,33.97
2018-08-22T10:09:21.720Z,34.02
2018-08-22T10:11:50.751Z,34.03
2018-08-22T10:14:19.760Z,34.03
2018-08-22T10:16:48.786Z,34.06
2018-08-22T10:19:17.813Z,34.37
2018-08-22T10:21:46.845Z,34.35
2018-08-22T10:24:15.944Z,34.52
2018-08-22T10:26:44.969Z,34.52
2018-08-22T10:29:14.002Z,34.58
2018-08-22T10:31:43.070Z,34.76
2018-08-22T10:34:12.055Z,34.94
2018-08-22T10:36:41.093Z,35.10
2018-08-22T10:39:10.614Z,34.91
2018-08-22T10:41:39.621Z,35.11
2018-08-22T10:44:08.580Z,35.64
2018-08-22T10:46:37.533Z,36.29
2018-08-22T10:49:06.713Z,37.14
2018-08-22T10:51:35.731Z,38.04
2018-08-22T10:54:04.825Z,38.73
2018-08-22T10:56:33.812Z,38.63
2018-08-22T10:59:02.878Z,38.83
2018-08-22T11:01:31.976Z,39.14
2018-08-22T11:04:01.046Z,39.37
2018-08-22T11:06:30.070Z,40.22
2018-08-22T11:08:59.098Z,41.15
2018-08-22T11:11:28.057Z,41.15
2018-08-22T11:13:57.205Z,40.98
2018-08-22T11:16:26.162Z,40.64
2018-08-22T11:18:55.168Z,40.82
2018-08-22T11:21:35.017Z,41.25
2018-08-22T11:24:15.033Z,41.64
2018-08-22T11:26:54.918Z,41.90
2018-08-22T11:29:34.772Z,41.62
2018-08-22T11:32:14.712Z,42.79
2018-08-22T11:34:45.016Z,42.69
2018-08-22T11:37:15.203Z,42.55
2018-08-22T11:39:46.629Z,42.94
2018-08-22T11:42:15.670Z,43.38
2018-08-22T11:44:44.689Z,42.54
2018-08-22T11:47:13.651Z,42.38
2018-08-22T11:49:42.654Z,42.67
2018-08-22T11:52:11.631Z,43.25
2018-08-22T11:54:40.572Z,43.74
2018-08-22T11:57:09.661Z,43.75
2018-08-22T11:59:38.653Z,43.42
2018-08-22T12:02:07.683Z,43.69
2018-08-22T12:04:36.656Z,43.60
2018-08-22T12:07:05.714Z,43.28
2018-08-22T12:09:34.739Z,43.52
2018-08-22T12:12:03.731Z,43.09
2018-08-22T12:14:32.706Z,42.36
2018-08-22T12:17:01.664Z,41.39
2018-08-22T12:19:30.668Z,40.30
2018-08-22T12:21:59.753Z,39.74
2018-08-22T12:24:28.704Z,39.46
2018-08-22T12:26:57.695Z,39.15
2018-08-22T12:29:26.763Z,39.93
2018-08-22T12:31:55.761Z,40.82
2018-08-22T12:34:24.857Z,41.55
2018-08-22T12:36:53.807Z,42.49
2018-08-22T12:39:22.866Z,43.11
2018-08-22T12:41:51.828Z,43.56
2018-08-22T12:44:20.816Z,43.41
2018-08-22T12:46:49.882Z,43.14
2018-08-22T12:49:18.835Z,43.07
2018-08-22T12:51:47.793Z,42.41
2018-08-22T12:54:16.773Z,42.54
2018-08-22T12:56:45.858Z,42.79
2018-08-22T12:59:14.879Z,42.95
2018-08-22T13:01:43.953Z,42.92
2018-08-22T13:04:12.963Z,42.85
2018-08-22T13:06:41.924Z,42.85
2018-08-22T13:09:11.736Z,43.61
2018-08-22T13:11:41.024Z,42.93
2018-08-22T13:14:10.105Z,42.36
2018-08-22T13:16:39.111Z,41.71
2018-08-22T13:19:08.155Z,40.69
2018-08-22T13:21:37.088Z,39.60
2018-08-22T13:24:06.190Z,38.16
2018-08-22T13:26:35.293Z,37.33
2018-08-22T13:29:04.231Z,36.81
2018-08-22T13:31:33.236Z,35.96
2018-08-22T13:34:02.180Z,35.10
2018-08-22T13:36:31.232Z,34.57
2018-08-22T13:39:00.220Z,34.05
2018-08-22T13:41:29.196Z,33.55
2018-08-22T13:43:58.363Z,33.11
2018-08-22T13:46:27.384Z,33.00
2018-08-22T13:48:56.417Z,32.88
2018-08-22T13:51:25.474Z,32.74
2018-08-22T13:53:54.525Z,32.35
2018-08-22T13:56:23.659Z,32.03
2018-08-22T13:58:52.685Z,31.76
2018-08-22T14:01:21.782Z,31.80
2018-08-22T14:03:50.806Z,31.80
2018-08-22T14:06:19.857Z,31.87
2018-08-22T14:08:48.893Z,31.89
2018-08-22T14:11:17.891Z,31.87
2018-08-22T14:13:47.020Z,31.85
2018-08-22T14:16:16.026Z,31.80
2018-08-22T14:18:45.029Z,31.86
2018-08-22T14:21:13.999Z,31.81
2018-08-22T14:23:42.969Z,31.79
2018-08-22T14:26:12.167Z,31.75
2018-08-22T14:28:41.111Z,31.49
2018-08-22T14:31:10.331Z,31.25
2018-08-22T14:33:39.670Z,31.13
2018-08-22T14:36:09.018Z,31.04
2018-08-22T14:38:39.968Z,30.76
2018-08-22T14:41:09.250Z,30.58
2018-08-22T14:43:39.169Z,30.51
2018-08-22T14:46:08.541Z,30.54
2018-08-22T14:48:37.795Z,30.40
2018-08-22T14:51:07.154Z,30.34
2018-08-22T14:53:36.432Z,30.49
2018-08-22T14:56:05.822Z,30.55
2018-08-22T14:58:35.031Z,30.75
2018-08-22T15:01:04.300Z,30.95
2018-08-22T15:03:33.702Z,31.14
2018-08-22T15:06:02.850Z,31.23
2018-08-22T15:08:32.073Z,31.24
2018-08-22T15:11:01.283Z,31.30
2018-08-22T15:13:30.541Z,31.20
2018-08-22T15:15:59.793Z,31.17
2018-08-22T15:18:29.067Z,31.15
2018-08-22T15:20:58.304Z,31.08
2018-08-22T15:23:27.625Z,30.86
2018-08-22T15:25:56.997Z,30.65
2018-08-22T15:28:26.275Z,30.45
2018-08-22T15:30:55.527Z,30.33
2018-08-22T15:33:24.706Z,30.19
2018-08-22T15:35:53.927Z,30.16
2018-08-22T15:38:23.166Z,30.08
2018-08-22T15:40:52.420Z,29.96
2018-08-22T15:43:21.722Z,29.93
2018-08-22T15:45:50.934Z,29.73
2018-08-22T15:48:20.204Z,29.56
2018-08-22T15:50:49.483Z,29.34
2018-08-22T15:53:18.831Z,29.39
2018-08-22T15:55:48.011Z,29.36
2018-08-22T15:58:17.289Z,29.29
2018-08-22T16:00:50.473Z,29.21
2018-08-22T16:03:19.889Z,29.11
2018-08-22T16:05:49.996Z,29.06
2018-08-22T16:08:20.706Z,29.01
2018-08-22T16:10:50.063Z,29.01
2018-08-22T16:13:24.359Z,28.74
2018-08-22T16:15:55.969Z,28.90
2018-08-22T16:18:25.269Z,28.88
2018-08-22T16:20:56.730Z,28.76
2018-08-22T16:23:28.120Z,28.77
2018-08-22T16:25:58.642Z,28.77
2018-08-22T16:28:28.608Z,28.74
2018-08-22T16:30:58.964Z,28.69
2018-08-22T16:33:28.271Z,28.55
2018-08-22T16:35:57.535Z,28.45
2018-08-22T16:38:26.864Z,28.36
2018-08-22T16:40:56.122Z,28.28
2018-08-22T16:43:39.416Z,28.15
2018-08-22T16:46:10.537Z,28.09
2018-08-22T16:48:40.564Z,27.96
2018-08-22T16:51:09.832Z,27.83
2018-08-22T16:53:39.031Z,27.68
2018-08-22T16:56:08.263Z,27.55
2018-08-22T16:58:37.399Z,27.44
2018-08-22T17:01:06.783Z,27.30
2018-08-22T17:03:36.018Z,27.15
2018-08-22T17:06:12.235Z,27.02
2018-08-22T17:08:41.551Z,26.90
2018-08-22T17:11:12.516Z,26.79
2018-08-22T17:13:45.413Z,26.75
2018-08-22T17:16:14.768Z,26.71
2018-08-22T17:18:44.020Z,26.62
2018-08-22T17:21:20.416Z,26.57
2018-08-22T17:23:50.099Z,26.52
2018-08-22T17:26:20.576Z,26.50
2018-08-22T17:28:52.553Z,26.49
2018-08-22T17:31:22.850Z,26.45
2018-08-22T17:33:54.944Z,26.44
2018-08-22T17:36:24.331Z,26.44
2018-08-22T17:38:55.243Z,26.43
2018-08-22T17:41:25.981Z,26.42
2018-08-22T17:44:05.470Z,26.42
2018-08-22T17:46:48.276Z,26.45
2018-08-22T17:49:17.659Z,26.40
2018-08-22T17:51:57.073Z,26.44
2018-08-22T17:54:26.848Z,26.42
2018-08-22T17:57:08.276Z,26.41
2018-08-22T17:59:37.612Z,26.32
2018-08-22T18:02:06.912Z,26.25
2018-08-22T18:04:47.471Z,26.13
2018-08-22T18:07:17.446Z,26.07
2018-08-22T18:09:47.847Z,25.97
2018-08-22T18:12:17.724Z,25.93
2018-08-22T18:14:47.058Z,25.87
2018-08-22T18:17:16.683Z,25.81
2018-08-22T18:19:46.286Z,25.78
2018-08-22T18:22:15.599Z,25.73
2018-08-22T18:24:51.757Z,25.66
2018-08-22T18:27:21.148Z,25.61
2018-08-22T18:29:50.563Z,25.57
2018-08-22T18:32:19.848Z,25.52
2018-08-22T18:35:18.196Z,25.50
2018-08-22T18:37:47.550Z,25.50
2018-08-22T18:40:18.352Z,25.46
2018-08-22T18:42:49.725Z,25.49
2018-08-22T18:45:19.473Z,25.50
2018-08-22T18:47:48.870Z,25.48
2018-08-22T18:50:18.514Z,25.46
2018-08-22T18:52:52.163Z,25.48
2018-08-22T18:55:25.188Z,25.48
2018-08-22T18:57:55.135Z,25.44
2018-08-22T19:00:24.809Z,25.37
2018-08-22T19:02:55.725Z,25.29
2018-08-22T19:05:32.662Z,25.20
2018-08-22T19:08:11.807Z,25.10
2018-08-22T19:10:42.402Z,24.98
2018-08-22T19:13:16.678Z,24.91
2018-08-22T19:15:51.911Z,24.83
2018-08-22T19:18:21.380Z,24.77
2018-08-22T19:20:53.420Z,24.74
2018-08-22T19:23:22.901Z,24.72
2018-08-22T19:25:53.092Z,24.70
2018-08-22T19:28:22.447Z,24.66
2018-08-22T19:30:51.926Z,24.56
2018-08-22T19:33:23.198Z,24.46
2018-08-22T19:35:52.531Z,24.36
2018-08-22T19:38:23.210Z,24.31
2018-08-22T19:40:52.638Z,24.25
2018-08-22T19:43:22.068Z,24.18
2018-08-22T19:45:51.388Z,24.11
2018-08-22T19:48:20.714Z,24.07
2018-08-22T19:50:50.080Z,24.00
2018-08-22T19:53:19.411Z,23.85
2018-08-22T19:55:48.706Z,23.81
2018-08-22T19:58:22.074Z,23.74
2018-08-22T20:00:51.373Z,23.67
2018-08-22T20:03:25.030Z,23.59
2018-08-22T20:05:55.550Z,23.55
2018-08-22T20:08:39.971Z,23.51
2018-08-22T20:11:09.326Z,23.45
2018-08-22T20:13:49.487Z,23.40
2018-08-22T20:16:19.998Z,23.33
2018-08-22T20:18:51.197Z,23.31
2018-08-22T20:21:25.423Z,23.28
2018-08-22T20:23:55.502Z,23.21
2018-08-22T20:26:25.718Z,23.18
2018-08-22T20:28:56.226Z,23.12
2018-08-22T20:31:25.502Z,23.07
2018-08-22T20:34:03.583Z,23.02
2018-08-22T20:36:33.028Z,22.95
2018-08-22T20:39:07.148Z,22.90
2018-08-22T20:41:37.063Z,22.89
2018-08-22T20:44:09.576Z,22.91
2018-08-22T20:46:39.027Z,22.91
2018-08-22T20:49:08.291Z,22.92
2018-08-22T20:51:37.567Z,22.96
2018-08-22T20:54:07.761Z,23.00
2018-08-22T20:56:38.800Z,23.08
2018-08-22T20:59:08.072Z,23.14
2018-08-22T21:01:37.374Z,23.19
2018-08-22T21:04:06.633Z,23.22
2018-08-22T21:06:35.966Z,23.25
2018-08-22T21:09:06.272Z,23.25
2018-08-22T21:11:36.172Z,23.23
2018-08-22T21:14:05.486Z,23.17
2018-08-22T21:16:34.844Z,23.13
2018-08-22T21:19:04.147Z,23.06
2018-08-22T21:21:33.428Z,22.99
2018-08-22T21:24:02.761Z,22.88
2018-08-22T21:26:39.397Z,22.73
2018-08-22T21:29:08.788Z,22.64
2018-08-22T21:31:38.067Z,22.59
2018-08-22T21:34:13.471Z,22.50
2018-08-22T21:36:45.266Z,22.41
2018-08-22T21:39:19.540Z,22.34
2018-08-22T21:41:49.075Z,22.26
2018-08-22T21:44:19.495Z,22.21
2018-08-22T21:46:58.180Z,22.14
2018-08-22T21:49:27.481Z,22.06
2018-08-22T21:51:58.803Z,21.99
2018-08-22T21:54:28.188Z,21.88
2018-08-22T21:56:57.228Z,21.78
2018-08-22T21:59:26.194Z,21.66
2018-08-22T22:02:00.289Z,21.57
2018-08-22T22:04:35.436Z,21.51
2018-08-22T22:07:05.543Z,21.42
2018-08-22T22:09:35.121Z,21.38
2018-08-22T22:12:04.685Z,21.34
2018-08-22T22:14:34.748Z,21.28
2018-08-22T22:17:04.615Z,21.23
2018-08-22T22:19:34.692Z,21.18
2018-08-22T22:22:04.201Z,21.15
2018-08-22T22:24:33.284Z,21.06
2018-08-22T22:27:02.224Z,21.03
2018-08-22T22:29:32.672Z,21.01
2018-08-22T22:32:01.623Z,20.99
2018-08-22T22:34:30.652Z,20.94
2018-08-22T22:36:59.584Z,20.89
2018-08-22T22:39:36.519Z,20.83
2018-08-22T22:42:16.733Z,20.76
2018-08-22T22:44:47.480Z,20.69
2018-08-22T22:47:21.636Z,20.64
2018-08-22T22:49:51.473Z,20.60
2018-08-22T22:52:41.916Z,20.50
2018-08-22T22:55:11.488Z,20.42
2018-08-22T22:57:41.697Z,20.36
2018-08-22T23:00:12.508Z,20.30
2018-08-22T23:02:41.827Z,20.24
2018-08-22T23:05:10.856Z,20.19
2018-08-22T23:07:41.948Z,20.17
2018-08-22T23:10:12.245Z,20.10
2018-08-22T23:12:41.817Z,20.00
2018-08-22T23:15:13.669Z,19.95
2018-08-22T23:17:42.932Z,19.92
2018-08-22T23:20:24.696Z,19.86
2018-08-22T23:22:53.755Z,19.84
2018-08-22T23:25:22.751Z,19.83
2018-08-22T23:27:51.691Z,19.73
2018-08-22T23:30:25.501Z,19.68
2018-08-22T23:32:54.451Z,19.64
2018-08-22T23:35:27.068Z,19.63
2018-08-22T23:37:58.206Z,19.60
2018-08-22T23:40:28.337Z,19.54
2018-08-22T23:42:57.399Z,19.52
2018-08-22T23:45:26.425Z,19.51
2018-08-22T23:47:55.441Z,19.47
2018-08-22T23:50:26.701Z,19.41
2018-08-22T23:52:56.423Z,19.39
2018-08-22T23:55:26.329Z,19.31
2018-08-22T23:57:56.574Z,19.27
